Aurora, WV (26705)

4:15 PM EST on February 27, 2015 (GMT -0500)
1 1/2 Mi. South of Terra Alta, Snowy Creek WV | Change Station
CLOSE
Current Station
Personal Weather Station
Location: Terra Alta, WV
Elevation: 2842 ft
Nearby Weather Stations

Elev 2842 ft 39.40 °N, 79.58 °W | Updated 11 minutes ago

Mostly Cloudy
Mostly Cloudy
19.4 °F
Feels Like 12 °F
N
5.6
Wind Variable Wind from South

Today
High -- | Low -- °F
--% Chance of Precip.
Yesterday
High -- | Low -- °F
Precip. -- in
6:54 AM 6:08 PM
Waxing Gibbous, 71% visible
Pressure 30.33 in
Visibility 10.0 miles
Clouds Scattered Clouds 2900 ft
Windchill 12 °F
Dew Point 3 °F
Humidity 49%
Rainfall 0.00 in
Snow Depth Not available.
UV 1 out of 12
Pollen .60 out of 12
Air Quality Not available.
Flu Activity Not available.
METAR K2G4 272110Z AUTO 29008G15KT 272V332 10SM SCT029 M11/M20 A3033 RMK AO1

More Conditions Fewer Conditions

Pressure 30.33 in
Visibility 10.0 miles
Clouds Scattered Clouds 2900 ft
Windchill 12 °F
Dew Point 3 °F
Humidity 49%
Rainfall 0.00 in
Snow Depth Not available.
UV 1 out of 12
Pollen .60 out of 12
Air Quality Not available.
Flu Activity Not available.
METAR K2G4 272110Z AUTO 29008G15KT 272V332 10SM SCT029 M11/M20 A3033 RMK AO1

More Conditions Fewer Conditions

10-Day Weather Forecast

Almanac

Astronomy

Feb. 27, 2015 Rise Set
Actual Time
Civil Twilight
Nautical Twilight
Astronomical Twilight
Moon
Length of Visible Light
Length of Day
Tomorrow will be .
, % of the Moon is Illuminated

Today's Extremes

State Highs State Lows

Community

WunderPhotos

Upload Photos

1,800,828 photos uploaded!

WunderBlogs® & News

Nearby

Air Quality

  Air Quality AQ Index Pollutant
Not available.

Snow Depth

Station Depth Elevation

Earthquake Activity

City Distance Mag. Time & Date
Minimum magnitude displayed is 2.5.

Coastal Water Temperatures

Place Temperature

Nearby Weather Stations